createdAt,value
2019-05-20T00:00:04.873Z,14.30
2019-05-20T00:02:33.395Z,14.30
2019-05-20T00:05:02.014Z,14.40
2019-05-20T00:07:30.592Z,14.40
2019-05-20T00:09:59.278Z,14.40
2019-05-20T00:12:27.856Z,14.40
2019-05-20T00:14:56.402Z,14.40
2019-05-20T00:17:24.991Z,14.30
2019-05-20T00:19:53.696Z,14.40
2019-05-20T00:22:22.626Z,14.30
2019-05-20T00:24:51.263Z,14.30
2019-05-20T00:27:19.840Z,14.30
2019-05-20T00:29:48.428Z,14.30
2019-05-20T00:32:17.085Z,14.40
2019-05-20T00:34:45.649Z,14.30
2019-05-20T00:37:14.262Z,14.30
2019-05-20T00:39:42.825Z,14.20
2019-05-20T00:42:11.432Z,14.20
2019-05-20T00:44:40.557Z,14.10
2019-05-20T00:47:09.968Z,14.10
2019-05-20T00:49:38.778Z,14.10
2019-05-20T00:52:07.683Z,14.00
2019-05-20T00:54:36.254Z,13.90
2019-05-20T00:57:04.872Z,13.90
2019-05-20T00:59:33.429Z,13.80
2019-05-20T01:02:02.015Z,13.90
2019-05-20T01:04:30.552Z,13.90
2019-05-20T01:06:59.283Z,13.90
2019-05-20T01:09:27.833Z,13.80
2019-05-20T01:11:56.472Z,13.80
2019-05-20T01:14:25.178Z,13.70
2019-05-20T01:16:54.011Z,13.70
2019-05-20T01:19:22.760Z,13.70
2019-05-20T01:21:51.522Z,13.70
2019-05-20T01:24:20.067Z,13.70
2019-05-20T01:26:48.683Z,13.60
2019-05-20T01:29:17.332Z,13.60
2019-05-20T01:31:45.996Z,13.60
2019-05-20T01:34:14.547Z,13.70
2019-05-20T01:36:43.100Z,13.60
2019-05-20T01:39:11.713Z,13.60
2019-05-20T01:41:40.272Z,13.60
2019-05-20T01:44:08.886Z,13.60
2019-05-20T01:46:37.775Z,13.60
2019-05-20T01:49:06.379Z,13.50
2019-05-20T01:51:34.946Z,13.60
2019-05-20T01:54:04.088Z,13.60
2019-05-20T01:56:33.183Z,13.60
2019-05-20T01:59:01.987Z,13.60
2019-05-20T02:01:30.565Z,13.60
2019-05-20T02:03:59.536Z,13.50
2019-05-20T02:06:28.137Z,13.50
2019-05-20T02:08:56.780Z,13.50
2019-05-20T02:11:25.481Z,13.50
2019-05-20T02:16:32.790Z,13.50
2019-05-20T02:19:01.502Z,13.50
2019-05-20T02:21:30.281Z,13.50
2019-05-20T02:23:58.960Z,13.40
2019-05-20T02:26:27.652Z,13.40
2019-05-20T02:28:56.338Z,13.40
2019-05-20T02:31:24.928Z,13.40
2019-05-20T02:33:53.478Z,13.30
2019-05-20T02:36:22.227Z,13.30
2019-05-20T02:38:51.370Z,13.20
2019-05-20T02:41:20.152Z,13.30
2019-05-20T02:43:48.834Z,13.20
2019-05-20T02:46:17.502Z,13.20
2019-05-20T02:48:46.296Z,13.10
2019-05-20T02:51:16.846Z,13.10
2019-05-20T02:53:45.499Z,13.00
2019-05-20T02:56:14.056Z,13.00
2019-05-20T02:58:42.637Z,12.90
2019-05-20T03:01:11.498Z,12.90
2019-05-20T03:03:40.395Z,12.90
2019-05-20T03:06:09.272Z,12.90
2019-05-20T03:08:37.842Z,12.90
2019-05-20T03:11:06.744Z,12.90
2019-05-20T03:13:35.639Z,12.90
2019-05-20T03:16:04.248Z,12.90
2019-05-20T03:18:32.869Z,13.00
2019-05-20T03:21:01.684Z,12.90
2019-05-20T03:23:30.706Z,13.00
2019-05-20T03:25:59.298Z,13.00
2019-05-20T03:28:27.875Z,13.00
2019-05-20T03:30:56.690Z,12.90
2019-05-20T03:33:25.386Z,12.90
2019-05-20T03:35:54.255Z,12.90
2019-05-20T03:38:22.997Z,12.80
2019-05-20T03:40:51.687Z,12.90
2019-05-20T03:43:20.520Z,12.90
2019-05-20T03:45:49.065Z,12.90
2019-05-20T03:48:17.750Z,12.80
2019-05-20T03:50:46.396Z,12.90
2019-05-20T03:53:15.011Z,12.90
2019-05-20T03:55:44.549Z,12.90
2019-05-20T03:58:13.998Z,12.90
2019-05-20T04:00:45.908Z,12.80
2019-05-20T04:03:15.016Z,12.80
2019-05-20T04:05:44.650Z,12.80
2019-05-20T04:08:13.354Z,12.80
2019-05-20T04:10:42.293Z,12.80
2019-05-20T04:13:11.128Z,12.80
2019-05-20T04:15:39.849Z,12.80
2019-05-20T04:18:08.589Z,12.70
2019-05-20T04:20:37.333Z,12.70
2019-05-20T04:23:06.052Z,12.80
2019-05-20T04:25:35.079Z,12.80
2019-05-20T04:28:03.619Z,12.80
2019-05-20T04:30:32.347Z,12.80
2019-05-20T04:33:01.226Z,12.80
2019-05-20T04:35:30.121Z,12.80
2019-05-20T04:37:59.241Z,12.90
2019-05-20T04:40:27.884Z,12.90
2019-05-20T04:42:56.516Z,13.00
2019-05-20T04:45:25.055Z,13.00
2019-05-20T04:47:53.658Z,13.10
2019-05-20T04:50:22.262Z,13.20
2019-05-20T04:52:51.319Z,13.30
2019-05-20T04:55:19.982Z,13.30
2019-05-20T04:57:49.689Z,13.40
2019-05-20T05:00:21.431Z,13.60
2019-05-20T05:02:50.293Z,13.70
2019-05-20T05:05:18.949Z,13.80
2019-05-20T05:07:47.494Z,13.90
2019-05-20T05:10:16.526Z,14.00
2019-05-20T05:12:45.245Z,14.10
2019-05-20T05:15:15.385Z,14.30
2019-05-20T05:17:44.295Z,14.40
2019-05-20T05:20:18.102Z,14.50
2019-05-20T05:22:43.295Z,14.70
2019-05-20T05:25:12.515Z,14.80
2019-05-20T05:27:41.135Z,15.00
2019-05-20T05:30:10.154Z,15.10
2019-05-20T05:32:42.772Z,15.30
2019-05-20T05:35:32.313Z,15.20
2019-05-20T05:38:01.608Z,15.30
2019-05-20T05:40:31.706Z,15.40
2019-05-20T05:43:00.338Z,15.50
2019-05-20T05:45:32.442Z,15.60
2019-05-20T05:48:01.729Z,15.60
2019-05-20T05:50:30.511Z,15.70
2019-05-20T05:52:59.239Z,15.90
2019-05-20T05:55:28.257Z,16.10
2019-05-20T05:57:57.262Z,16.30
2019-05-20T06:00:26.509Z,16.50
2019-05-20T06:02:55.273Z,16.70
2019-05-20T06:05:24.067Z,16.90
2019-05-20T06:07:52.767Z,17.00
2019-05-20T06:10:22.860Z,17.20
2019-05-20T06:12:51.514Z,17.20
2019-05-20T06:15:21.267Z,17.20
2019-05-20T06:17:49.955Z,17.20
2019-05-20T06:20:19.182Z,17.50
2019-05-20T06:22:47.891Z,17.70
2019-05-20T06:25:16.818Z,18.00
2019-05-20T06:27:45.451Z,18.20
2019-05-20T06:30:14.661Z,18.30
2019-05-20T06:32:43.370Z,18.40
2019-05-20T06:35:12.563Z,18.70
2019-05-20T06:37:43.059Z,18.80
2019-05-20T06:40:13.299Z,18.70
2019-05-20T06:42:42.155Z,18.80
2019-05-20T06:45:31.802Z,18.80
2019-05-20T06:48:00.782Z,18.80
2019-05-20T06:50:29.905Z,19.10
2019-05-20T06:52:58.578Z,19.10
2019-05-20T06:55:27.461Z,18.90
2019-05-20T06:57:56.144Z,18.90
2019-05-20T07:00:36.829Z,19.20
2019-05-20T07:03:06.605Z,19.30
2019-05-20T07:05:35.282Z,19.40
2019-05-20T07:08:03.921Z,19.60
2019-05-20T07:10:32.552Z,19.70
2019-05-20T07:13:01.259Z,19.90
2019-05-20T07:15:29.884Z,20.20
2019-05-20T07:17:58.836Z,20.10
2019-05-20T07:20:27.382Z,20.40
2019-05-20T07:22:57.068Z,20.60
2019-05-20T07:25:26.130Z,20.60
2019-05-20T07:27:54.943Z,20.80
2019-05-20T07:30:23.906Z,20.80
2019-05-20T07:32:52.666Z,20.50
2019-05-20T07:35:30.153Z,20.40
2019-05-20T07:37:51.657Z,20.40
2019-05-20T07:40:41.059Z,20.40
2019-05-20T07:43:09.728Z,20.60
2019-05-20T07:45:39.196Z,20.40
2019-05-20T07:48:08.369Z,20.60
2019-05-20T07:50:39.738Z,21.20
2019-05-20T07:53:11.589Z,21.40
2019-05-20T07:55:43.557Z,21.90
2019-05-20T07:58:14.453Z,22.10
2019-05-20T08:00:43.099Z,22.10
2019-05-20T08:03:11.803Z,22.20
2019-05-20T08:05:40.283Z,22.10
2019-05-20T08:08:08.971Z,22.00
2019-05-20T08:10:37.981Z,21.90
2019-05-20T08:13:06.538Z,21.60
2019-05-20T08:15:35.124Z,21.80
2019-05-20T08:18:04.048Z,21.60
2019-05-20T08:20:32.704Z,21.10
2019-05-20T08:23:01.316Z,21.10
2019-05-20T08:25:31.496Z,21.00
2019-05-20T08:28:00.523Z,21.30
2019-05-20T08:30:52.965Z,21.50
2019-05-20T08:33:22.273Z,22.00
2019-05-20T08:35:50.830Z,22.20
2019-05-20T08:38:19.460Z,22.50
2019-05-20T08:40:48.817Z,22.40
2019-05-20T08:43:17.709Z,22.20
2019-05-20T08:45:46.615Z,22.20
2019-05-20T08:48:15.499Z,22.50
2019-05-20T08:50:44.170Z,22.20
2019-05-20T08:53:12.802Z,21.70
2019-05-20T08:55:41.393Z,21.50
2019-05-20T08:58:09.929Z,21.10
2019-05-20T09:00:38.547Z,21.10
2019-05-20T09:03:07.209Z,20.90
2019-05-20T09:05:35.768Z,21.40
2019-05-20T09:08:04.436Z,21.50
2019-05-20T09:10:33.136Z,21.80
2019-05-20T09:13:01.763Z,21.70
2019-05-20T09:15:30.445Z,22.10
2019-05-20T09:17:59.333Z,22.30
2019-05-20T09:20:28.010Z,22.20
2019-05-20T09:22:56.595Z,22.20
2019-05-20T09:25:32.531Z,22.10
2019-05-20T09:28:01.770Z,22.50
2019-05-20T09:30:30.435Z,22.50
2019-05-20T09:32:59.156Z,22.00
2019-05-20T09:35:27.863Z,22.40
2019-05-20T09:37:56.501Z,22.30
2019-05-20T09:40:43.256Z,22.80
2019-05-20T09:43:12.165Z,22.50
2019-05-20T09:45:41.163Z,22.20
2019-05-20T09:48:11.284Z,22.00
2019-05-20T09:50:40.000Z,21.60
2019-05-20T09:53:08.698Z,21.90
2019-05-20T09:55:37.781Z,21.60
2019-05-20T09:58:06.585Z,21.70
2019-05-20T10:00:35.399Z,21.60
2019-05-20T10:03:04.418Z,21.40
2019-05-20T10:05:36.844Z,21.30
2019-05-20T10:08:03.921Z,21.20
2019-05-20T10:10:32.577Z,21.40
2019-05-20T10:13:01.788Z,21.40
2019-05-20T10:15:30.610Z,21.80
2019-05-20T10:17:59.307Z,22.00
2019-05-20T10:20:27.996Z,21.80
2019-05-20T10:22:56.697Z,21.80
2019-05-20T10:25:30.569Z,21.60
2019-05-20T10:28:07.279Z,21.90
2019-05-20T10:30:38.465Z,22.20
2019-05-20T10:33:18.003Z,22.10
2019-05-20T10:35:49.391Z,22.10
2019-05-20T10:38:19.492Z,22.40
2019-05-20T10:41:02.342Z,22.40
2019-05-20T10:43:32.855Z,22.40
2019-05-20T10:46:05.640Z,21.70
2019-05-20T10:48:39.057Z,21.20
2019-05-20T10:51:10.466Z,21.20
2019-05-20T10:53:40.718Z,21.30
2019-05-20T10:56:10.965Z,21.30
2019-05-20T10:58:40.648Z,21.60
2019-05-20T11:01:10.433Z,21.30
2019-05-20T11:03:53.066Z,21.10
2019-05-20T11:06:24.381Z,21.20
2019-05-20T11:08:53.948Z,21.00
2019-05-20T11:11:30.718Z,21.10
2019-05-20T11:14:00.975Z,21.40
2019-05-20T11:16:30.654Z,21.10
2019-05-20T11:19:00.440Z,21.20
2019-05-20T11:21:30.139Z,21.00
2019-05-20T11:24:00.050Z,21.10
2019-05-20T11:26:39.446Z,21.00
2019-05-20T11:29:12.437Z,21.20
2019-05-20T11:31:42.191Z,21.60
2019-05-20T11:34:21.528Z,22.10
2019-05-20T11:36:51.946Z,22.20
2019-05-20T11:39:32.620Z,22.50
2019-05-20T11:41:54.393Z,22.50
2019-05-20T11:44:24.388Z,22.30
2019-05-20T11:46:56.434Z,22.20
2019-05-20T11:49:29.259Z,21.70
2019-05-20T11:51:58.845Z,21.40
2019-05-20T11:54:35.104Z,20.90
2019-05-20T11:57:05.037Z,20.70
2019-05-20T11:59:34.469Z,20.30
2019-05-20T12:02:09.916Z,20.00
2019-05-20T12:04:39.712Z,20.20
2019-05-20T12:07:12.339Z,20.60
2019-05-20T12:09:49.752Z,20.90
2019-05-20T12:12:14.267Z,21.00
2019-05-20T12:14:45.443Z,21.10
2019-05-20T12:17:22.162Z,21.20
2019-05-20T12:19:53.639Z,21.00
2019-05-20T12:22:23.871Z,21.00
2019-05-20T12:24:59.074Z,20.80
2019-05-20T12:27:30.136Z,20.60
2019-05-20T12:30:00.555Z,20.40
2019-05-20T12:33:17.014Z,20.40
2019-05-20T12:35:25.478Z,20.20
2019-05-20T12:37:55.016Z,19.80
2019-05-20T12:40:35.903Z,19.40
2019-05-20T12:43:11.519Z,19.50
2019-05-20T12:45:41.749Z,19.60
2019-05-20T12:48:39.179Z,19.80
2019-05-20T12:51:14.584Z,19.80
2019-05-20T12:53:44.654Z,19.60
2019-05-20T12:56:19.886Z,19.40
2019-05-20T12:58:50.839Z,19.40
2019-05-20T13:01:20.873Z,19.30
2019-05-20T13:04:15.708Z,19.10
2019-05-20T13:06:45.944Z,18.70
2019-05-20T13:09:15.863Z,18.70
2019-05-20T13:11:45.969Z,18.80
2019-05-20T13:14:16.613Z,18.70
2019-05-20T13:16:48.792Z,18.60
2019-05-20T13:19:27.414Z,18.40
2019-05-20T13:21:59.712Z,18.30
2019-05-20T13:24:30.314Z,18.10
2019-05-20T13:27:00.960Z,17.90
2019-05-20T13:29:31.957Z,17.80
2019-05-20T13:32:04.003Z,17.70
2019-05-20T13:34:33.393Z,17.60
2019-05-20T13:37:03.753Z,17.60
2019-05-20T13:39:34.794Z,17.50
2019-05-20T13:42:27.918Z,17.40
2019-05-20T13:44:57.484Z,17.40
2019-05-20T13:47:26.889Z,17.40
2019-05-20T13:49:58.048Z,17.30
2019-05-20T13:52:28.260Z,17.30
2019-05-20T13:54:59.918Z,17.30
2019-05-20T13:57:30.935Z,17.20
2019-05-20T14:00:01.362Z,17.20
2019-05-20T14:02:32.019Z,17.10
2019-05-20T14:05:01.317Z,17.00
2019-05-20T14:07:30.723Z,17.00
2019-05-20T14:10:00.923Z,16.90
2019-05-20T14:12:31.834Z,16.90
2019-05-20T14:15:02.363Z,16.80
2019-05-20T14:17:32.809Z,16.70
2019-05-20T14:20:04.577Z,16.70
2019-05-20T14:22:35.005Z,16.70
2019-05-20T14:25:06.938Z,16.70
2019-05-20T14:27:39.330Z,16.80
2019-05-20T14:30:10.480Z,16.90
2019-05-20T14:32:41.700Z,16.90
2019-05-20T14:35:32.232Z,17.10
2019-05-20T14:38:01.876Z,17.10
2019-05-20T14:40:31.610Z,17.20
2019-05-20T14:43:01.370Z,17.10
2019-05-20T14:45:31.647Z,17.10
2019-05-20T14:48:04.033Z,17.10
2019-05-20T14:50:34.533Z,16.90
2019-05-20T14:53:04.262Z,17.00
2019-05-20T14:55:42.082Z,17.00
2019-05-20T14:58:10.042Z,17.10
2019-05-20T15:00:41.211Z,17.20
2019-05-20T15:03:30.811Z,17.30
2019-05-20T15:06:01.038Z,17.30
2019-05-20T15:08:34.250Z,17.30
2019-05-20T15:11:02.310Z,17.40
2019-05-20T15:13:33.604Z,17.30
2019-05-20T15:16:04.176Z,17.30
2019-05-20T15:18:34.487Z,17.40
2019-05-20T15:21:04.657Z,17.50
2019-05-20T15:23:36.846Z,17.40
2019-05-20T15:26:08.210Z,17.50
2019-05-20T15:28:39.395Z,17.40
2019-05-20T15:31:09.932Z,17.40
2019-05-20T15:33:40.190Z,17.30
2019-05-20T15:36:10.016Z,17.20
2019-05-20T15:38:39.989Z,17.10
2019-05-20T15:44:10.303Z,17.10
2019-05-20T15:46:40.324Z,17.10
2019-05-20T15:49:09.771Z,17.10
2019-05-20T15:51:39.600Z,17.10
2019-05-20T15:54:09.072Z,17.10
2019-05-20T15:56:38.615Z,17.10
2019-05-20T15:59:08.701Z,17.10
2019-05-20T16:01:38.544Z,17.10
2019-05-20T16:04:09.235Z,17.20
2019-05-20T16:06:39.306Z,17.20
2019-05-20T16:09:09.954Z,17.10
2019-05-20T16:11:40.616Z,17.10
2019-05-20T16:14:11.699Z,17.10
2019-05-20T16:16:42.229Z,17.10
2019-05-20T16:19:11.556Z,17.10
2019-05-20T16:21:42.067Z,17.00
2019-05-20T16:24:11.496Z,17.00
2019-05-20T16:26:42.723Z,17.00
2019-05-20T16:29:32.978Z,16.90
2019-05-20T16:32:04.250Z,16.90
2019-05-20T16:34:33.462Z,16.90
2019-05-20T16:37:04.531Z,16.90
2019-05-20T16:39:36.828Z,16.80
2019-05-20T16:42:07.611Z,16.80
2019-05-20T16:44:37.417Z,16.70
2019-05-20T16:47:09.124Z,16.50
2019-05-20T16:49:39.762Z,16.50
2019-05-20T16:52:09.748Z,16.40
2019-05-20T16:54:59.853Z,16.30
2019-05-20T16:57:30.479Z,16.30
2019-05-20T16:59:59.876Z,16.30
2019-05-20T17:02:29.924Z,16.20
2019-05-20T17:05:00.899Z,16.20
2019-05-20T17:07:32.019Z,16.20
2019-05-20T17:10:03.045Z,16.10
2019-05-20T17:12:33.210Z,16.00
2019-05-20T17:15:08.335Z,16.00
2019-05-20T17:17:39.420Z,15.90
2019-05-20T17:20:10.027Z,15.80
2019-05-20T17:22:46.311Z,15.80
2019-05-20T17:25:17.138Z,15.70
2019-05-20T17:27:46.856Z,15.60
2019-05-20T17:30:16.510Z,15.50
2019-05-20T17:32:46.582Z,15.50
2019-05-20T17:35:15.862Z,15.40
2019-05-20T17:37:55.040Z,15.40
2019-05-20T17:40:43.631Z,15.40
2019-05-20T17:43:13.341Z,15.30
2019-05-20T17:45:50.421Z,15.30
2019-05-20T17:48:21.653Z,15.20
2019-05-20T17:50:51.614Z,15.20
2019-05-20T17:53:27.322Z,15.20
2019-05-20T17:55:56.803Z,15.10
2019-05-20T17:58:25.983Z,15.20
2019-05-20T18:01:14.931Z,15.10
2019-05-20T18:03:36.697Z,15.10
2019-05-20T18:06:06.596Z,15.00
2019-05-20T18:08:42.974Z,14.90
2019-05-20T18:11:13.015Z,14.80
2019-05-20T18:13:42.345Z,14.80
2019-05-20T18:16:18.318Z,14.70
2019-05-20T18:18:48.411Z,14.60
2019-05-20T18:21:17.680Z,14.50
2019-05-20T18:23:51.917Z,14.50
2019-05-20T18:26:22.078Z,14.40
2019-05-20T18:28:52.118Z,14.40
2019-05-20T18:31:32.426Z,14.40
2019-05-20T18:33:59.842Z,14.40
2019-05-20T18:36:29.309Z,14.40
2019-05-20T18:39:04.693Z,14.30
2019-05-20T18:41:34.335Z,14.40
2019-05-20T18:44:03.628Z,14.40
2019-05-20T18:46:37.954Z,14.40
2019-05-20T18:49:12.294Z,14.40
2019-05-20T18:51:41.404Z,14.40
2019-05-20T18:54:20.879Z,14.40
2019-05-20T18:56:50.627Z,14.40
2019-05-20T18:59:19.827Z,14.50
2019-05-20T19:02:13.945Z,14.50
2019-05-20T19:04:43.814Z,14.50
2019-05-20T19:07:13.914Z,14.50
2019-05-20T19:09:49.560Z,14.50
2019-05-20T19:12:19.469Z,14.50
2019-05-20T19:14:48.826Z,14.50
2019-05-20T19:17:27.130Z,14.50
2019-05-20T19:19:56.503Z,14.50
2019-05-20T19:22:26.091Z,14.50
2019-05-20T19:24:57.874Z,14.50
2019-05-20T19:27:27.279Z,14.40
2019-05-20T19:29:56.585Z,14.50
2019-05-20T19:32:26.655Z,14.40
2019-05-20T19:34:55.867Z,14.40
2019-05-20T19:37:32.799Z,14.30
2019-05-20T19:40:21.396Z,14.30
2019-05-20T19:42:52.229Z,14.30
2019-05-20T19:45:28.180Z,14.20
2019-05-20T19:47:58.778Z,14.20
2019-05-20T19:50:30.197Z,14.20
2019-05-20T19:52:59.550Z,14.20
2019-05-20T19:55:29.678Z,14.20
2019-05-20T19:58:00.829Z,14.10
2019-05-20T20:00:30.242Z,14.10
2019-05-20T20:02:59.682Z,14.10
2019-05-20T20:05:31.682Z,14.10
2019-05-20T20:08:02.237Z,14.10
2019-05-20T20:10:31.826Z,14.00
2019-05-20T20:13:03.251Z,14.00
2019-05-20T20:15:39.380Z,14.00
2019-05-20T20:18:09.018Z,14.00
2019-05-20T20:20:38.600Z,14.00
2019-05-20T20:23:13.742Z,14.00
2019-05-20T20:25:44.306Z,14.00
2019-05-20T20:28:14.862Z,14.00
2019-05-20T20:31:03.545Z,14.00
2019-05-20T20:33:35.022Z,14.00
2019-05-20T20:36:04.626Z,14.00
2019-05-20T20:38:41.264Z,14.00
2019-05-20T20:41:11.684Z,14.00
2019-05-20T20:43:42.618Z,14.00
2019-05-20T20:46:17.716Z,14.00
2019-05-20T20:48:47.465Z,14.10
2019-05-20T20:51:17.656Z,14.10
2019-05-20T20:53:49.369Z,14.10
2019-05-20T20:56:25.313Z,14.10
2019-05-20T20:58:54.750Z,14.10
2019-05-20T21:01:25.791Z,14.10
2019-05-20T21:04:17.378Z,14.10
2019-05-20T21:06:49.652Z,14.20
2019-05-20T21:09:19.670Z,14.30
2019-05-20T21:11:49.108Z,14.20
2019-05-20T21:14:24.985Z,14.30
2019-05-20T21:16:54.489Z,14.30
2019-05-20T21:19:25.551Z,14.30
2019-05-20T21:21:56.740Z,14.30
2019-05-20T21:24:26.486Z,14.30
2019-05-20T21:27:03.431Z,14.30
2019-05-20T21:29:56.766Z,14.30
2019-05-20T21:32:28.337Z,14.20
2019-05-20T21:34:59.568Z,14.20
2019-05-20T21:37:36.745Z,14.20
2019-05-20T21:40:09.025Z,14.20
2019-05-20T21:42:40.636Z,14.20
2019-05-20T21:48:06.378Z,14.10
2019-05-20T21:50:36.881Z,14.00
2019-05-20T21:53:27.829Z,14.00
2019-05-20T21:55:57.378Z,14.00
2019-05-20T21:58:27.428Z,14.10
2019-05-20T22:01:01.869Z,14.10
2019-05-20T22:03:32.028Z,14.00
2019-05-20T22:06:01.862Z,14.00
2019-05-20T22:08:35.831Z,14.00
2019-05-20T22:11:06.131Z,14.00
2019-05-20T22:13:36.091Z,14.00
2019-05-20T22:16:09.805Z,14.10
2019-05-20T22:18:40.171Z,14.10
2019-05-20T22:21:12.483Z,14.00
2019-05-20T22:23:47.586Z,14.00
2019-05-20T22:26:17.567Z,14.00
2019-05-20T22:28:48.306Z,14.00
2019-05-20T22:31:19.996Z,14.00
2019-05-20T22:33:58.177Z,14.00
2019-05-20T22:36:29.887Z,14.00
2019-05-20T22:39:04.962Z,14.00
2019-05-20T22:41:35.098Z,14.00
2019-05-20T22:44:06.819Z,14.00
2019-05-20T22:46:47.799Z,14.00
2019-05-20T22:49:17.921Z,14.00
2019-05-20T22:51:48.887Z,14.00
2019-05-20T22:54:18.668Z,13.90
2019-05-20T22:56:48.978Z,14.00
2019-05-20T22:59:18.209Z,14.00
2019-05-20T23:01:48.791Z,14.00
2019-05-20T23:04:18.372Z,14.00
2019-05-20T23:06:52.875Z,14.00
2019-05-20T23:09:22.881Z,14.00
2019-05-20T23:11:53.511Z,14.10
2019-05-20T23:14:27.423Z,14.10
2019-05-20T23:16:57.428Z,14.10
2019-05-20T23:19:28.717Z,14.10
2019-05-20T23:22:01.939Z,14.10
2019-05-20T23:24:31.454Z,14.10
2019-05-20T23:27:01.876Z,14.10
2019-05-20T23:29:35.975Z,14.20
2019-05-20T23:32:05.676Z,14.20
2019-05-20T23:34:35.506Z,14.20
2019-05-20T23:37:05.019Z,14.20
2019-05-20T23:39:35.868Z,14.20
2019-05-20T23:42:06.720Z,14.10
2019-05-20T23:44:36.819Z,14.20
2019-05-20T23:47:14.705Z,14.10
2019-05-20T23:49:44.434Z,14.20
2019-05-20T23:52:13.871Z,14.20
2019-05-20T23:54:44.660Z,14.20
2019-05-20T23:57:18.751Z,14.20
2019-05-20T23:59:48.853Z,14.20
